sensor_id;sensor_type;location;lat;lon;timestamp;pressure;altitude;pressure_sealevel;temperature;humidity
16030;BME280;34770;49.272;11.070;2023-02-19T00:00:28;98123.41;;;7.73;100.00
16030;BME280;34770;49.272;11.070;2023-02-19T00:02:53;98116.38;;;7.75;100.00
16030;BME280;34770;49.272;11.070;2023-02-19T00:05:21;98122.09;;;7.70;100.00
16030;BME280;34770;49.272;11.070;2023-02-19T00:07:46;98105.94;;;7.72;100.00
16030;BME280;34770;49.272;11.070;2023-02-19T00:10:11;98108.56;;;7.77;100.00
16030;BME280;34770;49.272;11.070;2023-02-19T00:12:37;98105.13;;;7.80;100.00
16030;BME280;34770;49.272;11.070;2023-02-19T00:15:02;98091.63;;;7.70;100.00
16030;BME280;34770;49.272;11.070;2023-02-19T00:17:30;98103.69;;;7.74;100.00
16030;BME280;34770;49.272;11.070;2023-02-19T00:19:55;98083.66;;;7.60;100.00
16030;BME280;34770;49.272;11.070;2023-02-19T00:22:20;98096.50;;;7.73;100.00
16030;BME280;34770;49.272;11.070;2023-02-19T00:24:47;98076.66;;;7.71;100.00
16030;BME280;34770;49.272;11.070;2023-02-19T00:27:12;98070.13;;;7.67;100.00
16030;BME280;34770;49.272;11.070;2023-02-19T00:29:38;98082.19;;;7.71;100.00
16030;BME280;34770;49.272;11.070;2023-02-19T00:32:04;98094.72;;;7.77;100.00
16030;BME280;34770;49.272;11.070;2023-02-19T00:34:29;98068.16;;;7.68;100.00
16030;BME280;34770;49.272;11.070;2023-02-19T00:36:54;98098.63;;;7.76;100.00
16030;BME280;34770;49.272;11.070;2023-02-19T00:39:20;98100.75;;;7.71;100.00
16030;BME280;34770;49.272;11.070;2023-02-19T00:41:45;98098.00;;;7.62;100.00
16030;BME280;34770;49.272;11.070;2023-02-19T00:44:11;98116.06;;;7.68;100.00
16030;BME280;34770;49.272;11.070;2023-02-19T00:46:43;98115.13;;;7.64;100.00
16030;BME280;34770;49.272;11.070;2023-02-19T00:49:16;98087.41;;;7.55;100.00
16030;BME280;34770;49.272;11.070;2023-02-19T00:51:42;98086.28;;;7.65;100.00
16030;BME280;34770;49.272;11.070;2023-02-19T00:54:09;98093.25;;;7.71;100.00
16030;BME280;34770;49.272;11.070;2023-02-19T00:56:35;98104.81;;;7.73;100.00
16030;BME280;34770;49.272;11.070;2023-02-19T00:59:01;98085.91;;;7.75;100.00
16030;BME280;34770;49.272;11.070;2023-02-19T01:01:26;98095.03;;;7.76;100.00
16030;BME280;34770;49.272;11.070;2023-02-19T01:03:52;98093.72;;;7.73;100.00
16030;BME280;34770;49.272;11.070;2023-02-19T01:06:19;98086.09;;;7.70;100.00
16030;BME280;34770;49.272;11.070;2023-02-19T01:08:46;98087.06;;;7.65;100.00
16030;BME280;34770;49.272;11.070;2023-02-19T01:11:12;98078.44;;;7.67;100.00
16030;BME280;34770;49.272;11.070;2023-02-19T01:13:38;98072.09;;;7.66;100.00
16030;BME280;34770;49.272;11.070;2023-02-19T01:18:33;98046.00;;;7.68;100.00
16030;BME280;34770;49.272;11.070;2023-02-19T01:20:59;98047.00;;;7.63;100.00
16030;BME280;34770;49.272;11.070;2023-02-19T01:23:24;98049.41;;;7.73;100.00
16030;BME280;34770;49.272;11.070;2023-02-19T01:25:50;98043.06;;;7.73;100.00
16030;BME280;34770;49.272;11.070;2023-02-19T01:28:15;98030.03;;;7.64;100.00
16030;BME280;34770;49.272;11.070;2023-02-19T01:30:41;98038.50;;;7.68;100.00
16030;BME280;34770;49.272;11.070;2023-02-19T01:33:07;98036.56;;;7.60;100.00
16030;BME280;34770;49.272;11.070;2023-02-19T01:35:33;98051.06;;;7.65;100.00
16030;BME280;34770;49.272;11.070;2023-02-19T01:38:02;98044.56;;;7.61;100.00
16030;BME280;34770;49.272;11.070;2023-02-19T01:40:27;98027.31;;;7.47;100.00
16030;BME280;34770;49.272;11.070;2023-02-19T01:42:53;98030.88;;;7.56;100.00
16030;BME280;34770;49.272;11.070;2023-02-19T01:45:29;98036.56;;;7.60;100.00
16030;BME280;34770;49.272;11.070;2023-02-19T01:50:30;98013.75;;;7.63;100.00
16030;BME280;34770;49.272;11.070;2023-02-19T01:52:58;97980.84;;;7.53;100.00
16030;BME280;34770;49.272;11.070;2023-02-19T01:55:28;98000.84;;;7.67;100.00
16030;BME280;34770;49.272;11.070;2023-02-19T01:57:54;97993.69;;;7.66;100.00
16030;BME280;34770;49.272;11.070;2023-02-19T02:00:20;97992.72;;;7.62;100.00
16030;BME280;34770;49.272;11.070;2023-02-19T02:02:50;97997.63;;;7.65;100.00
16030;BME280;34770;49.272;11.070;2023-02-19T02:08:05;97996.94;;;7.68;100.00
16030;BME280;34770;49.272;11.070;2023-02-19T02:10:50;97989.13;;;7.70;100.00
16030;BME280;34770;49.272;11.070;2023-02-19T02:13:17;97968.75;;;7.66;100.00
16030;BME280;34770;49.272;11.070;2023-02-19T02:18:33;97982.91;;;7.73;100.00
16030;BME280;34770;49.272;11.070;2023-02-19T02:21:13;97988.78;;;7.72;100.00
16030;BME280;34770;49.272;11.070;2023-02-19T02:24:10;97988.63;;;7.68;100.00
16030;BME280;34770;49.272;11.070;2023-02-19T02:29:35;97958.34;;;7.63;100.00
16030;BME280;34770;49.272;11.070;2023-02-19T02:32:10;97968.44;;;7.68;100.00
16030;BME280;34770;49.272;11.070;2023-02-19T02:34:54;97994.47;;;7.75;100.00
16030;BME280;34770;49.272;11.070;2023-02-19T02:37:24;97985.66;;;7.73;100.00
16030;BME280;34770;49.272;11.070;2023-02-19T02:39:51;97982.13;;;7.64;100.00
16030;BME280;34770;49.272;11.070;2023-02-19T02:42:18;97977.53;;;7.68;100.00
16030;BME280;34770;49.272;11.070;2023-02-19T02:44:57;97979.97;;;7.70;100.00
16030;BME280;34770;49.272;11.070;2023-02-19T02:50:18;97970.88;;;7.69;100.00
16030;BME280;34770;49.272;11.070;2023-02-19T02:52:46;97973.16;;;7.67;100.00
16030;BME280;34770;49.272;11.070;2023-02-19T02:55:37;97958.34;;;7.63;100.00
16030;BME280;34770;49.272;11.070;2023-02-19T02:58:06;97961.28;;;7.66;100.00
16030;BME280;34770;49.272;11.070;2023-02-19T03:00:32;97958.16;;;7.68;100.00
16030;BME280;34770;49.272;11.070;2023-02-19T03:03:20;97958.53;;;7.58;100.00
16030;BME280;34770;49.272;11.070;2023-02-19T03:05:57;97960.13;;;7.59;100.00
16030;BME280;34770;49.272;11.070;2023-02-19T03:08:43;97966.84;;;7.58;100.00
16030;BME280;34770;49.272;11.070;2023-02-19T03:11:11;97961.91;;;7.63;100.00
16030;BME280;34770;49.272;11.070;2023-02-19T03:14:05;97937.88;;;7.46;100.00
16030;BME280;34770;49.272;11.070;2023-02-19T03:16:56;97959.28;;;7.67;100.00
16030;BME280;34770;49.272;11.070;2023-02-19T03:19:44;97947.75;;;7.65;100.00
16030;BME280;34770;49.272;11.070;2023-02-19T03:22:21;97942.69;;;7.67;100.00
16030;BME280;34770;49.272;11.070;2023-02-19T03:24:52;97945.44;;;7.67;100.00
16030;BME280;34770;49.272;11.070;2023-02-19T03:27:40;97945.94;;;7.69;100.00
16030;BME280;34770;49.272;11.070;2023-02-19T03:30:12;97939.59;;;7.60;100.00
16030;BME280;34770;49.272;11.070;2023-02-19T03:32:43;97938.13;;;7.62;100.00
16030;BME280;34770;49.272;11.070;2023-02-19T03:35:24;97938.97;;;7.63;100.00
16030;BME280;34770;49.272;11.070;2023-02-19T03:40:28;97917.16;;;7.53;100.00
16030;BME280;34770;49.272;11.070;2023-02-19T03:42:57;97929.97;;;7.66;100.00
16030;BME280;34770;49.272;11.070;2023-02-19T03:45:45;97930.44;;;7.68;100.00
16030;BME280;34770;49.272;11.070;2023-02-19T03:48:54;97909.47;;;7.58;100.00
16030;BME280;34770;49.272;11.070;2023-02-19T03:51:23;97943.34;;;7.64;100.00
16030;BME280;34770;49.272;11.070;2023-02-19T03:54:08;97935.66;;;7.70;100.00
16030;BME280;34770;49.272;11.070;2023-02-19T04:01:58;97943.50;;;7.68;100.00
16030;BME280;34770;49.272;11.070;2023-02-19T04:04:42;97930.78;;;7.66;100.00
16030;BME280;34770;49.272;11.070;2023-02-19T04:07:09;97934.22;;;7.63;100.00
16030;BME280;34770;49.272;11.070;2023-02-19T04:09:38;97931.25;;;7.69;100.00
16030;BME280;34770;49.272;11.070;2023-02-19T04:12:06;97928.63;;;7.72;100.00
16030;BME280;34770;49.272;11.070;2023-02-19T04:14:39;97926.34;;;7.74;100.00
16030;BME280;34770;49.272;11.070;2023-02-19T04:17:12;97926.53;;;7.69;100.00
16030;BME280;34770;49.272;11.070;2023-02-19T04:19:41;97946.56;;;7.75;100.00
16030;BME280;34770;49.272;11.070;2023-02-19T04:22:08;97953.41;;;7.77;100.00
16030;BME280;34770;49.272;11.070;2023-02-19T04:24:40;97951.97;;;7.71;100.00
16030;BME280;34770;49.272;11.070;2023-02-19T04:27:07;97962.91;;;7.68;100.00
16030;BME280;34770;49.272;11.070;2023-02-19T04:29:33;97969.25;;;7.68;100.00
16030;BME280;34770;49.272;11.070;2023-02-19T04:31:58;97962.72;;;7.73;100.00
16030;BME280;34770;49.272;11.070;2023-02-19T04:34:24;97944.78;;;7.70;100.00
16030;BME280;34770;49.272;11.070;2023-02-19T04:36:49;97938.75;;;7.68;100.00
16030;BME280;34770;49.272;11.070;2023-02-19T04:39:15;97957.00;;;7.69;100.00
16030;BME280;34770;49.272;11.070;2023-02-19T04:41:40;97958.84;;;7.65;100.00
16030;BME280;34770;49.272;11.070;2023-02-19T04:44:06;97956.41;;;7.55;100.00
16030;BME280;34770;49.272;11.070;2023-02-19T04:46:31;97957.06;;;7.60;100.00
16030;BME280;34770;49.272;11.070;2023-02-19T04:48:57;97967.28;;;7.69;100.00
16030;BME280;34770;49.272;11.070;2023-02-19T04:51:22;97963.69;;;7.68;100.00
16030;BME280;34770;49.272;11.070;2023-02-19T04:53:48;97970.03;;;7.69;100.00
16030;BME280;34770;49.272;11.070;2023-02-19T04:56:15;97962.59;;;7.60;100.00
16030;BME280;34770;49.272;11.070;2023-02-19T04:58:42;97976.59;;;7.64;100.00
16030;BME280;34770;49.272;11.070;2023-02-19T05:01:09;97982.00;;;7.51;100.00
16030;BME280;34770;49.272;11.070;2023-02-19T05:03:35;97982.31;;;7.50;100.00
16030;BME280;34770;49.272;11.070;2023-02-19T05:06:05;97989.16;;;7.53;100.00
16030;BME280;34770;49.272;11.070;2023-02-19T05:08:31;97994.56;;;7.49;100.00
16030;BME280;34770;49.272;11.070;2023-02-19T05:10:58;97981.88;;;7.39;100.00
16030;BME280;34770;49.272;11.070;2023-02-19T05:13:24;98003.19;;;7.47;100.00
16030;BME280;34770;49.272;11.070;2023-02-19T05:15:54;97976.34;;;7.30;100.00
16030;BME280;34770;49.272;11.070;2023-02-19T05:18:19;97980.38;;;7.50;100.00
16030;BME280;34770;49.272;11.070;2023-02-19T05:20:44;97980.69;;;7.49;100.00
16030;BME280;34770;49.272;11.070;2023-02-19T05:23:10;97979.94;;;7.40;100.00
16030;BME280;34770;49.272;11.070;2023-02-19T05:25:35;97987.22;;;7.44;100.00
16030;BME280;34770;49.272;11.070;2023-02-19T05:28:01;97975.34;;;7.44;100.00
16030;BME280;34770;49.272;11.070;2023-02-19T05:30:45;97994.56;;;7.49;100.00
16030;BME280;34770;49.272;11.070;2023-02-19T05:33:11;97972.91;;;7.42;100.00
16030;BME280;34770;49.272;11.070;2023-02-19T05:35:47;97998.47;;;7.48;100.00
16030;BME280;34770;49.272;11.070;2023-02-19T05:38:13;97994.88;;;7.47;100.00
16030;BME280;34770;49.272;11.070;2023-02-19T05:40:39;97991.63;;;7.45;100.00
16030;BME280;34770;49.272;11.070;2023-02-19T05:43:06;97983.16;;;7.50;100.00
16030;BME280;34770;49.272;11.070;2023-02-19T05:45:32;97986.09;;;7.45;100.00
16030;BME280;34770;49.272;11.070;2023-02-19T05:47:58;97978.75;;;7.49;100.00
16030;BME280;34770;49.272;11.070;2023-02-19T05:50:24;97994.88;;;7.47;100.00
16030;BME280;34770;49.272;11.070;2023-02-19T05:52:50;98000.75;;;7.46;100.00
16030;BME280;34770;49.272;11.070;2023-02-19T05:55:15;98005.63;;;7.49;100.00
16030;BME280;34770;49.272;11.070;2023-02-19T05:57:42;97997.81;;;7.51;100.00
16030;BME280;34770;49.272;11.070;2023-02-19T06:00:10;97997.00;;;7.50;100.00
16030;BME280;34770;49.272;11.070;2023-02-19T06:02:36;98006.13;;;7.51;100.00
16030;BME280;34770;49.272;11.070;2023-02-19T06:05:04;97998.94;;;7.50;100.00
16030;BME280;34770;49.272;11.070;2023-02-19T06:07:30;98004.00;;;7.57;100.00
16030;BME280;34770;49.272;11.070;2023-02-19T06:09:56;97978.75;;;7.49;100.00
16030;BME280;34770;49.272;11.070;2023-02-19T06:12:21;98003.50;;;7.55;100.00
16030;BME280;34770;49.272;11.070;2023-02-19T06:14:47;97972.59;;;7.35;100.00
16030;BME280;34770;49.272;11.070;2023-02-19T06:17:12;98004.16;;;7.51;100.00
16030;BME280;34770;49.272;11.070;2023-02-19T06:19:38;98000.09;;;7.49;100.00
16030;BME280;34770;49.272;11.070;2023-02-19T06:22:03;98011.47;;;7.56;100.00
16030;BME280;34770;49.272;11.070;2023-02-19T06:24:29;98011.63;;;7.60;100.00
16030;BME280;34770;49.272;11.070;2023-02-19T06:26:54;97984.63;;;7.39;100.00
16030;BME280;34770;49.272;11.070;2023-02-19T06:29:20;98020.44;;;7.62;100.00
16030;BME280;34770;49.272;11.070;2023-02-19T06:31:45;98014.72;;;7.58;100.00
16030;BME280;34770;49.272;11.070;2023-02-19T06:34:11;98008.84;;;7.60;100.00
16030;BME280;34770;49.272;11.070;2023-02-19T06:36:36;98038.69;;;7.63;100.00
16030;BME280;34770;49.272;11.070;2023-02-19T06:39:03;98040.34;;;7.46;100.00
16030;BME280;34770;49.272;11.070;2023-02-19T06:41:29;98024.41;;;7.43;100.00
16030;BME280;34770;49.272;11.070;2023-02-19T06:43:56;98046.69;;;7.56;100.00
16030;BME280;34770;49.272;11.070;2023-02-19T06:46:21;98046.84;;;7.59;100.00
16030;BME280;34770;49.272;11.070;2023-02-19T06:48:47;98037.38;;;7.51;100.00
16030;BME280;34770;49.272;11.070;2023-02-19T06:51:15;98045.53;;;7.57;100.00
16030;BME280;34770;49.272;11.070;2023-02-19T06:53:43;98067.72;;;7.57;100.00
16030;BME280;34770;49.272;11.070;2023-02-19T06:56:28;98062.16;;;7.57;100.00
16030;BME280;34770;49.272;11.070;2023-02-19T06:58:56;98070.13;;;7.58;100.00
16030;BME280;34770;49.272;11.070;2023-02-19T07:01:25;98059.56;;;7.60;100.00
16030;BME280;34770;49.272;11.070;2023-02-19T07:03:51;98063.78;;;7.58;100.00
16030;BME280;34770;49.272;11.070;2023-02-19T07:06:20;98076.97;;;7.61;100.00
16030;BME280;34770;49.272;11.070;2023-02-19T07:08:47;98070.94;;;7.59;100.00
16030;BME280;34770;49.272;11.070;2023-02-19T07:11:12;98090.81;;;7.70;100.00
16030;BME280;34770;49.272;11.070;2023-02-19T07:13:38;98083.19;;;7.58;100.00
16030;BME280;34770;49.272;11.070;2023-02-19T07:16:06;98084.47;;;7.69;100.00
16030;BME280;34770;49.272;11.070;2023-02-19T07:18:32;98081.88;;;7.64;100.00
16030;BME280;34770;49.272;11.070;2023-02-19T07:21:06;98098.81;;;7.71;100.00
16030;BME280;34770;49.272;11.070;2023-02-19T07:23:32;98090.16;;;7.73;100.00
16030;BME280;34770;49.272;11.070;2023-02-19T07:25:58;98083.00;;;7.63;100.00
16030;BME280;34770;49.272;11.070;2023-02-19T07:28:24;98094.22;;;7.75;100.00
16030;BME280;34770;49.272;11.070;2023-02-19T07:30:49;98096.84;;;7.72;100.00
16030;BME280;34770;49.272;11.070;2023-02-19T07:33:15;98093.56;;;7.70;100.00
16030;BME280;34770;49.272;11.070;2023-02-19T07:35:48;98097.00;;;7.75;100.00
16030;BME280;34770;49.272;11.070;2023-02-19T07:38:15;98096.19;;;7.75;100.00
16030;BME280;34770;49.272;11.070;2023-02-19T07:40:41;98114.59;;;7.71;100.00
16030;BME280;34770;49.272;11.070;2023-02-19T07:43:06;98115.25;;;7.76;100.00
16030;BME280;34770;49.272;11.070;2023-02-19T07:45:32;98099.28;;;7.73;100.00
16030;BME280;34770;49.272;11.070;2023-02-19T07:47:57;98106.91;;;7.85;100.00
16030;BME280;34770;49.272;11.070;2023-02-19T07:50:23;98124.38;;;7.86;100.00
16030;BME280;34770;49.272;11.070;2023-02-19T07:52:48;98131.38;;;7.92;100.00
16030;BME280;34770;49.272;11.070;2023-02-19T07:55:14;98105.47;;;7.79;100.00
16030;BME280;34770;49.272;11.070;2023-02-19T07:57:39;98125.00;;;7.91;100.00
16030;BME280;34770;49.272;11.070;2023-02-19T08:00:05;98124.81;;;7.96;100.00
16030;BME280;34770;49.272;11.070;2023-02-19T08:02:30;98129.22;;;7.97;100.00
16030;BME280;34770;49.272;11.070;2023-02-19T08:05:14;98144.38;;;8.00;100.00
16030;BME280;34770;49.272;11.070;2023-02-19T08:07:39;98136.53;;;8.02;100.00
16030;BME280;34770;49.272;11.070;2023-02-19T08:10:05;98126.97;;;7.91;100.00
16030;BME280;34770;49.272;11.070;2023-02-19T08:12:57;98139.31;;;8.02;100.00
16030;BME280;34770;49.272;11.070;2023-02-19T08:15:41;98119.47;;;7.82;100.00
16030;BME280;34770;49.272;11.070;2023-02-19T08:18:07;98140.16;;;8.03;100.00
16030;BME280;34770;49.272;11.070;2023-02-19T08:20:33;98105.09;;;7.98;100.00
16030;BME280;34770;49.272;11.070;2023-02-19T08:22:58;98055.91;;;7.69;100.00
16030;BME280;34770;49.272;11.070;2023-02-19T08:25:24;98082.13;;;7.89;100.00
16030;BME280;34770;49.272;11.070;2023-02-19T08:27:49;98132.56;;;8.21;100.00
16030;BME280;34770;49.272;11.070;2023-02-19T08:30:15;98132.28;;;8.13;100.00
16030;BME280;34770;49.272;11.070;2023-02-19T08:32:40;98094.00;;;7.98;100.00
16030;BME280;34770;49.272;11.070;2023-02-19T08:35:06;98140.72;;;8.26;100.00
16030;BME280;34770;49.272;11.070;2023-02-19T08:37:31;98128.69;;;8.13;100.00
16030;BME280;34770;49.272;11.070;2023-02-19T08:39:57;98079.00;;;7.90;100.00
16030;BME280;34770;49.272;11.070;2023-02-19T08:42:22;98139.41;;;8.32;100.00
16030;BME280;34770;49.272;11.070;2023-02-19T08:44:48;98161.06;;;8.39;100.00
16030;BME280;34770;49.272;11.070;2023-02-19T08:47:13;98167.31;;;8.27;100.00
16030;BME280;34770;49.272;11.070;2023-02-19T08:49:39;98112.44;;;7.94;100.00
16030;BME280;34770;49.272;11.070;2023-02-19T08:52:04;98065.56;;;7.71;100.00
16030;BME280;34770;49.272;11.070;2023-02-19T08:54:30;98164.41;;;8.14;100.00
16030;BME280;34770;49.272;11.070;2023-02-19T08:56:55;98181.53;;;8.17;100.00
16030;BME280;34770;49.272;11.070;2023-02-19T08:59:20;98155.16;;;8.02;100.00
16030;BME280;34770;49.272;11.070;2023-02-19T09:01:46;98103.19;;;7.72;100.00
16030;BME280;34770;49.272;11.070;2023-02-19T09:04:11;98177.94;;;8.16;100.00
16030;BME280;34770;49.272;11.070;2023-02-19T09:06:37;98089.88;;;7.57;100.00
16030;BME280;34770;49.272;11.070;2023-02-19T09:09:03;98178.41;;;8.27;100.00
16030;BME280;34770;49.272;11.070;2023-02-19T09:11:28;98146.16;;;8.13;100.00
16030;BME280;34770;49.272;11.070;2023-02-19T09:13:55;98096.19;;;7.75;100.00
16030;BME280;34770;49.272;11.070;2023-02-19T09:16:20;98189.47;;;8.36;100.00
16030;BME280;34770;49.272;11.070;2023-02-19T09:18:46;98197.25;;;8.42;100.00
16030;BME280;34770;49.272;11.070;2023-02-19T09:21:11;98143.91;;;7.98;100.00
16030;BME280;34770;49.272;11.070;2023-02-19T09:23:37;98134.13;;;7.92;100.00
16030;BME280;34770;49.272;11.070;2023-02-19T09:26:04;98143.91;;;7.98;100.00
16030;BME280;34770;49.272;11.070;2023-02-19T09:28:32;98122.09;;;7.79;100.00
16030;BME280;34770;49.272;11.070;2023-02-19T09:31:05;98180.56;;;8.12;100.00
16030;BME280;34770;49.272;11.070;2023-02-19T09:33:31;98189.16;;;8.28;100.00
16030;BME280;34770;49.272;11.070;2023-02-19T09:36:00;98194.69;;;8.37;100.00
16030;BME280;34770;49.272;11.070;2023-02-19T09:38:26;98192.75;;;8.38;100.00
16030;BME280;34770;49.272;11.070;2023-02-19T09:40:52;98232.03;;;8.57;100.00
16030;BME280;34770;49.272;11.070;2023-02-19T09:43:19;98200.72;;;8.48;100.00
16030;BME280;34770;49.272;11.070;2023-02-19T09:45:47;98185.56;;;8.28;100.00
16030;BME280;34770;49.272;11.070;2023-02-19T09:48:13;98211.97;;;8.52;100.00
16030;BME280;34770;49.272;11.070;2023-02-19T09:50:47;98203.03;;;8.28;100.00
16030;BME280;34770;49.272;11.070;2023-02-19T09:53:24;98224.19;;;8.42;100.00
16030;BME280;34770;49.272;11.070;2023-02-19T09:55:51;98248.03;;;8.52;100.00
16030;BME280;34770;49.272;11.070;2023-02-19T09:58:31;98220.13;;;8.39;100.00
16030;BME280;34770;49.272;11.070;2023-02-19T10:00:59;98239.22;;;8.58;100.00
16030;BME280;34770;49.272;11.070;2023-02-19T10:03:31;98203.31;;;8.44;100.00
16030;BME280;34770;49.272;11.070;2023-02-19T10:06:00;98171.16;;;8.43;100.00
16030;BME280;34770;49.272;11.070;2023-02-19T10:08:30;98241.53;;;8.95;100.00
16030;BME280;34770;49.272;11.070;2023-02-19T10:10:56;98211.25;;;8.72;100.00
16030;BME280;34770;49.272;11.070;2023-02-19T10:13:28;98242.16;;;8.92;100.00
16030;BME280;34770;49.272;11.070;2023-02-19T10:15:57;98232.03;;;8.96;100.00
16030;BME280;34770;49.272;11.070;2023-02-19T10:18:25;98175.72;;;8.57;100.00
16030;BME280;34770;49.272;11.070;2023-02-19T10:20:54;98163.75;;;8.65;100.00
16030;BME280;34770;49.272;11.070;2023-02-19T10:23:21;98219.53;;;8.81;100.00
16030;BME280;34770;49.272;11.070;2023-02-19T10:25:52;98233.38;;;8.90;100.00
16030;BME280;34770;49.272;11.070;2023-02-19T10:28:25;98237.97;;;8.86;100.00
16030;BME280;34770;49.272;11.070;2023-02-19T10:30:55;98225.13;;;8.72;100.00
16030;BME280;34770;49.272;11.070;2023-02-19T10:33:21;98239.78;;;8.82;100.00
16030;BME280;34770;49.272;11.070;2023-02-19T10:38:19;98253.81;;;8.85;100.00
16030;BME280;34770;49.272;11.070;2023-02-19T10:40:49;98212.31;;;8.50;100.00
16030;BME280;34770;49.272;11.070;2023-02-19T10:43:25;98253.66;;;8.82;100.00
16030;BME280;34770;49.272;11.070;2023-02-19T10:46:00;98265.06;;;8.89;100.00
16030;BME280;34770;49.272;11.070;2023-02-19T10:48:31;98220.72;;;8.71;100.00
16030;BME280;34770;49.272;11.070;2023-02-19T10:51:03;98263.13;;;8.81;100.00
16030;BME280;34770;49.272;11.070;2023-02-19T10:58:34;98236.41;;;8.67;100.00
16030;BME280;34770;49.272;11.070;2023-02-19T11:03:50;98259.34;;;8.85;100.00
16030;BME280;34770;49.272;11.070;2023-02-19T11:06:18;98267.84;;;8.80;100.00
16030;BME280;34770;49.272;11.070;2023-02-19T11:09:25;98276.34;;;8.75;100.00
16030;BME280;34770;49.272;11.070;2023-02-19T11:11:52;98278.63;;;8.82;100.00
16030;BME280;34770;49.272;11.070;2023-02-19T11:14:20;98215.53;;;8.43;100.00
16030;BME280;34770;49.272;11.070;2023-02-19T11:16:59;98271.66;;;8.75;100.00
16030;BME280;34770;49.272;11.070;2023-02-19T11:19:39;98254.34;;;8.70;100.00
16030;BME280;34770;49.272;11.070;2023-02-19T11:22:38;98283.06;;;8.83;100.00
16030;BME280;34770;49.272;11.070;2023-02-19T11:25:22;98275.03;;;8.81;100.00
16030;BME280;34770;49.272;11.070;2023-02-19T11:30:34;98291.00;;;8.93;100.00
16030;BME280;34770;49.272;11.070;2023-02-19T11:33:32;98266.25;;;8.79;100.00
16030;BME280;34770;49.272;11.070;2023-02-19T11:36:20;98281.75;;;8.71;100.00
16030;BME280;34770;49.272;11.070;2023-02-19T11:38:48;98272.03;;;8.48;100.00
16030;BME280;34770;49.272;11.070;2023-02-19T11:53:15;98312.03;;;8.03;100.00
16030;BME280;34770;49.272;11.070;2023-02-19T11:55:58;98305.97;;;7.92;100.00
16030;BME280;34770;49.272;11.070;2023-02-19T11:58:39;98300.28;;;7.88;100.00
16030;BME280;34770;49.272;11.070;2023-02-19T12:06:43;98297.81;;;8.22;100.00
16030;BME280;34770;49.272;11.070;2023-02-19T12:09:32;98269.44;;;8.25;100.00
16030;BME280;34770;49.272;11.070;2023-02-19T12:20:32;98313.22;;;9.32;100.00
16030;BME280;34770;49.272;11.070;2023-02-19T12:28:42;98256.84;;;9.31;100.00
16030;BME280;34770;49.272;11.070;2023-02-19T12:45:18;98258.59;;;10.08;97.42
16030;BME280;34770;49.272;11.070;2023-02-19T12:50:38;98228.69;;;9.41;96.62
16030;BME280;34770;49.272;11.070;2023-02-19T12:55:55;98215.06;;;9.28;96.44
16030;BME280;34770;49.272;11.070;2023-02-19T12:58:40;98239.47;;;9.64;92.99
16030;BME280;34770;49.272;11.070;2023-02-19T13:01:11;98269.06;;;10.78;88.19
16030;BME280;34770;49.272;11.070;2023-02-19T13:03:49;98284.97;;;11.02;86.33
16030;BME280;34770;49.272;11.070;2023-02-19T13:06:26;98275.09;;;11.67;80.89
16030;BME280;34770;49.272;11.070;2023-02-19T13:09:01;98243.53;;;12.04;78.91
16030;BME280;34770;49.272;11.070;2023-02-19T13:11:35;98280.19;;;12.59;74.97
16030;BME280;34770;49.272;11.070;2023-02-19T13:14:18;98261.00;;;12.29;77.61
16030;BME280;34770;49.272;11.070;2023-02-19T13:16:49;98280.72;;;11.42;81.40
16030;BME280;34770;49.272;11.070;2023-02-19T13:19:16;98223.97;;;10.18;86.89
16030;BME280;34770;49.272;11.070;2023-02-19T13:21:46;98292.50;;;10.22;88.81
16030;BME280;34770;49.272;11.070;2023-02-19T13:24:38;98302.75;;;9.88;90.67
16030;BME280;34770;49.272;11.070;2023-02-19T13:27:24;98288.28;;;9.74;90.36
16030;BME280;34770;49.272;11.070;2023-02-19T13:36:00;98307.59;;;9.49;92.81
16030;BME280;34770;49.272;11.070;2023-02-19T13:38:32;98280.22;;;9.30;91.38
16030;BME280;34770;49.272;11.070;2023-02-19T13:40:58;98283.06;;;9.21;94.21
16030;BME280;34770;49.272;11.070;2023-02-19T13:43:27;98303.50;;;9.47;96.36
16030;BME280;34770;49.272;11.070;2023-02-19T13:46:09;98250.00;;;9.29;97.40
16030;BME280;34770;49.272;11.070;2023-02-19T13:48:38;98258.50;;;9.23;95.47
16030;BME280;34770;49.272;11.070;2023-02-19T13:53:59;98267.03;;;9.18;95.57
16030;BME280;34770;49.272;11.070;2023-02-19T14:04:20;98312.41;;;9.31;100.00
16030;BME280;34770;49.272;11.070;2023-02-19T14:14:39;98322.94;;;9.17;100.00
16030;BME280;34770;49.272;11.070;2023-02-19T14:19:52;98348.66;;;8.96;100.00
16030;BME280;34770;49.272;11.070;2023-02-19T14:25:06;98344.28;;;8.77;100.00
16030;BME280;34770;49.272;11.070;2023-02-19T14:27:34;98351.50;;;8.61;100.00
16030;BME280;34770;49.272;11.070;2023-02-19T14:29:59;98361.63;;;8.48;100.00
16030;BME280;34770;49.272;11.070;2023-02-19T14:32:25;98356.38;;;8.20;100.00
16030;BME280;34770;49.272;11.070;2023-02-19T14:34:51;98394.34;;;8.11;100.00
16030;BME280;34770;49.272;11.070;2023-02-19T14:37:19;98389.13;;;7.92;100.00
16030;BME280;34770;49.272;11.070;2023-02-19T14:39:46;98398.25;;;8.01;100.00
16030;BME280;34770;49.272;11.070;2023-02-19T14:42:19;98380.25;;;7.72;100.00
16030;BME280;34770;49.272;11.070;2023-02-19T14:44:50;98395.06;;;7.59;100.00
16030;BME280;34770;49.272;11.070;2023-02-19T14:47:19;98391.84;;;7.65;100.00
16030;BME280;34770;49.272;11.070;2023-02-19T14:49:48;98385.69;;;7.77;100.00
16030;BME280;34770;49.272;11.070;2023-02-19T14:52:26;98388.78;;;7.85;100.00
16030;BME280;34770;49.272;11.070;2023-02-19T14:54:59;98395.13;;;7.76;100.00
16030;BME280;34770;49.272;11.070;2023-02-19T14:57:32;98396.31;;;7.93;100.00
16030;BME280;34770;49.272;11.070;2023-02-19T15:00:03;98398.88;;;7.80;100.00
16030;BME280;34770;49.272;11.070;2023-02-19T15:02:30;98417.72;;;7.61;100.00